Time;durP1;ratioP1;P1;durP2;ratioP2;P2;SDS_P1;SDS_P2;PMS_P1;PMS_P2;Temp;Humidity;BMP_temperature;BMP_pressure;BME280_temperature;BME280_humidity;BME280_pressure;Samples;Min_cycle;Max_cycle;Signal;HPM_P1;HPM_P2
2022/05/28 00:01:17;;;;;;;4.47;2.17;;;21.80;54.60;;;;;;4909612;28;92174;-64
2022/05/28 00:03:44;;;;;;;5.32;2.03;;;21.80;54.70;;;;;;4907698;28;92497;-63
2022/05/28 00:06:12;;;;;;;3.47;1.45;;;21.80;54.70;;;;;;4906680;28;92614;-63
2022/05/28 00:08:38;;;;;;;4.93;1.85;;;21.80;54.80;;;;;;4909147;28;93426;-63
2022/05/28 00:11:21;;;;;;;4.95;2.00;;;21.80;54.70;;;;;;4908610;28;92675;-63
2022/05/28 00:13:48;;;;;;;2.03;1.27;;;21.80;54.80;;;;;;4907347;28;92031;-63
2022/05/28 00:16:15;;;;;;;3.42;1.80;;;21.80;54.70;;;;;;4907606;28;93586;-62
2022/05/28 00:18:41;;;;;;;2.97;1.30;;;21.80;54.80;;;;;;4908367;28;93170;-63
2022/05/28 00:21:08;;;;;;;3.35;1.70;;;21.80;54.90;;;;;;4908813;28;92050;-62
2022/05/28 00:23:35;;;;;;;2.70;1.50;;;21.70;55.30;;;;;;4908006;28;92775;-63
2022/05/28 00:26:01;;;;;;;3.60;1.58;;;21.80;54.80;;;;;;4907656;28;93026;-63
2022/05/28 00:28:29;;;;;;;2.05;1.48;;;21.80;54.80;;;;;;4908698;28;92861;-63
2022/05/28 00:30:55;;;;;;;4.95;2.00;;;21.70;54.80;;;;;;4909758;28;92758;-63
2022/05/28 00:33:22;;;;;;;3.25;1.80;;;21.70;54.70;;;;;;4907440;28;91877;-63
2022/05/28 00:35:48;;;;;;;2.50;1.40;;;21.80;54.90;;;;;;4906712;28;92612;-63
2022/05/28 00:38:15;;;;;;;5.35;2.03;;;21.70;54.90;;;;;;4908820;28;93007;-63
2022/05/28 00:40:46;;;;;;;2.22;1.40;;;21.70;54.80;;;;;;4908534;28;94012;-64
2022/05/28 00:43:12;;;;;;;2.47;1.50;;;21.70;54.80;;;;;;4907315;28;92720;-63
2022/05/28 00:45:39;;;;;;;3.80;1.50;;;21.70;54.90;;;;;;4907539;28;94017;-62
2022/05/28 00:48:06;;;;;;;2.70;1.55;;;21.70;54.80;;;;;;4907631;28;92907;-63
2022/05/28 00:50:34;;;;;;;2.15;1.58;;;21.70;54.90;;;;;;4907334;28;92435;-63
2022/05/28 00:53:02;;;;;;;3.03;1.65;;;21.70;54.80;;;;;;4906594;28;92511;-63
2022/05/28 00:55:30;;;;;;;2.92;1.55;;;21.70;54.90;;;;;;4905781;28;94629;-63
2022/05/28 00:57:55;;;;;;;2.72;1.42;;;21.70;54.80;;;;;;4908347;28;92776;-62
2022/05/28 01:00:22;;;;;;;3.08;1.65;;;21.70;54.90;;;;;;4908923;28;93054;-63
2022/05/28 01:02:53;;;;;;;3.72;1.70;;;21.70;55.00;;;;;;4908162;28;93096;-64
2022/05/28 01:05:34;;;;;;;2.67;1.30;;;21.70;54.90;;;;;;4907272;28;94100;-63
2022/05/28 01:08:18;;;;;;;2.75;1.60;;;21.70;54.80;;;;;;4907595;28;93768;-63
2022/05/28 01:11:06;;;;;;;3.65;1.67;;;21.70;54.90;;;;;;4907837;28;92051;-62
2022/05/28 01:13:54;;;;;;;2.90;1.40;;;21.70;55.00;;;;;;4908210;28;92472;-63
2022/05/28 01:16:27;;;;;;;2.23;1.43;;;21.70;55.10;;;;;;4907167;28;92812;-63
2022/05/28 01:18:57;;;;;;;2.33;1.30;;;21.70;55.00;;;;;;4911230;28;92312;-64
2022/05/28 01:21:47;;;;;;;2.55;1.40;;;21.70;55.10;;;;;;4911802;28;92783;-64
2022/05/28 01:24:19;;;;;;;2.00;1.20;;;21.70;55.00;;;;;;4912062;28;92240;-64
2022/05/28 01:26:45;;;;;;;2.30;1.42;;;21.70;55.20;;;;;;4911424;28;92939;-63
2022/05/28 01:29:16;;;;;;;2.72;1.50;;;21.70;55.60;;;;;;4911354;28;92398;-64
2022/05/28 01:31:44;;;;;;;2.13;1.58;;;21.60;55.00;;;;;;4911448;28;93305;-63
2022/05/28 01:34:11;;;;;;;2.78;1.60;;;21.60;54.90;;;;;;4912623;28;92920;-63
2022/05/28 01:36:38;;;;;;;3.13;1.30;;;21.60;54.90;;;;;;4910655;28;93041;-64
2022/05/28 01:39:06;;;;;;;2.05;1.40;;;21.70;55.00;;;;;;4909285;28;96327;-63
2022/05/28 01:41:35;;;;;;;2.10;1.20;;;21.70;54.90;;;;;;4911322;28;92346;-64
2022/05/28 01:44:02;;;;;;;2.60;1.65;;;21.70;54.90;;;;;;4910089;28;93058;-64
2022/05/28 01:46:29;;;;;;;2.20;1.27;;;21.70;54.90;;;;;;4910107;28;92911;-63
2022/05/28 01:48:56;;;;;;;2.83;1.60;;;21.70;55.00;;;;;;4909503;28;92147;-63
2022/05/28 01:51:28;;;;;;;3.70;1.85;;;21.70;54.90;;;;;;4910905;28;92987;-63
2022/05/28 01:54:07;;;;;;;3.20;1.38;;;21.60;55.00;;;;;;4910725;28;92743;-63
2022/05/28 01:56:38;;;;;;;3.20;1.70;;;21.60;55.00;;;;;;4909181;28;94036;-63
2022/05/28 01:59:05;;;;;;;2.75;1.40;;;21.60;54.90;;;;;;4909601;28;93706;-64
2022/05/28 02:01:30;;;;;;;2.17;1.13;;;21.70;55.00;;;;;;4909950;28;93151;-63
2022/05/28 02:03:58;;;;;;;2.42;1.60;;;21.60;55.00;;;;;;4909441;28;93072;-64
2022/05/28 02:06:25;;;;;;;2.70;1.45;;;21.60;55.00;;;;;;4909772;28;93141;-63
2022/05/28 02:08:51;;;;;;;1.88;1.02;;;21.60;55.00;;;;;;4910433;28;92571;-64
2022/05/28 02:11:21;;;;;;;1.73;1.20;;;21.60;55.10;;;;;;4910994;28;93106;-64
2022/05/28 02:14:04;;;;;;;2.05;1.40;;;21.60;54.90;;;;;;4910894;28;91625;-63
2022/05/28 02:16:51;;;;;;;2.47;1.33;;;21.60;55.00;;;;;;4910083;28;93745;-63
2022/05/28 02:19:43;;;;;;;2.92;1.67;;;21.60;55.10;;;;;;4910219;28;92865;-63
2022/05/28 02:22:43;;;;;;;2.13;1.27;;;21.60;54.90;;;;;;4910123;28;93419;-64
2022/05/28 02:25:29;;;;;;;2.40;1.38;;;21.60;55.00;;;;;;4910901;28;93071;-64
2022/05/28 02:27:56;;;;;;;2.72;1.23;;;21.60;54.90;;;;;;4909834;28;93343;-63
2022/05/28 02:30:22;;;;;;;2.67;1.40;;;21.60;55.00;;;;;;4909990;28;92982;-64
2022/05/28 02:33:02;;;;;;;2.97;1.20;;;21.50;54.90;;;;;;4910431;28;93181;-62
2022/05/28 02:35:28;;;;;;;2.35;1.20;;;21.50;54.80;;;;;;4910330;28;92817;-63
2022/05/28 02:37:54;;;;;;;2.10;1.25;;;21.50;54.80;;;;;;4910056;28;93146;-63
2022/05/28 02:40:20;;;;;;;3.05;1.27;;;21.60;54.80;;;;;;4910128;28;92875;-63
2022/05/28 02:42:46;;;;;;;1.90;1.17;;;21.60;55.00;;;;;;4910783;28;92874;-64
2022/05/28 02:45:13;;;;;;;2.63;1.40;;;21.60;55.00;;;;;;4910295;28;92982;-64
2022/05/28 02:47:38;;;;;;;2.78;1.45;;;21.50;55.00;;;;;;4908032;28;97114;-63
2022/05/28 02:50:05;;;;;;;2.65;1.40;;;21.50;55.10;;;;;;4909773;28;93886;-64
2022/05/28 02:52:30;;;;;;;2.28;1.33;;;21.50;55.10;;;;;;4909841;28;92377;-64
2022/05/28 02:54:56;;;;;;;3.40;1.55;;;21.50;55.10;;;;;;4908702;28;93175;-63
2022/05/28 02:57:22;;;;;;;2.50;1.50;;;21.50;55.00;;;;;;4908824;28;93189;-64
2022/05/28 02:59:47;;;;;;;2.17;1.35;;;21.50;55.10;;;;;;4909081;28;92915;-63
2022/05/28 03:02:13;;;;;;;3.67;1.40;;;21.50;55.00;;;;;;4909762;28;92487;-64
2022/05/28 03:04:39;;;;;;;1.90;1.17;;;21.50;55.10;;;;;;4909730;28;91799;-63
2022/05/28 03:07:05;;;;;;;2.67;1.58;;;21.50;55.00;;;;;;4909485;28;93312;-65
2022/05/28 03:09:30;;;;;;;3.40;1.30;;;21.50;55.00;;;;;;4909435;28;93289;-64
2022/05/28 03:11:56;;;;;;;2.25;1.15;;;21.50;54.90;;;;;;4909832;28;93840;-63
2022/05/28 03:14:22;;;;;;;2.22;1.10;;;21.50;55.00;;;;;;4909136;28;92693;-63
2022/05/28 03:16:47;;;;;;;3.92;1.42;;;21.50;54.90;;;;;;4909232;28;93514;-63
2022/05/28 03:19:13;;;;;;;1.92;1.30;;;21.50;55.00;;;;;;4909477;28;92660;-64
2022/05/28 03:21:39;;;;;;;1.80;1.33;;;21.50;55.00;;;;;;4909652;28;92034;-64
2022/05/28 03:24:07;;;;;;;2.20;1.20;;;21.50;54.80;;;;;;4909089;28;92561;-64
2022/05/28 03:26:33;;;;;;;3.63;1.38;;;21.50;55.00;;;;;;4907933;28;93173;-63
2022/05/28 03:28:59;;;;;;;1.65;1.13;;;21.50;55.00;;;;;;4909688;28;92740;-64
2022/05/28 03:31:26;;;;;;;2.08;1.00;;;21.50;55.00;;;;;;4910068;28;92226;-63
2022/05/28 03:33:52;;;;;;;2.03;1.30;;;21.50;55.00;;;;;;4908069;28;92197;-63
2022/05/28 03:36:19;;;;;;;1.77;1.08;;;21.50;55.00;;;;;;4907319;28;93995;-63
2022/05/28 03:38:45;;;;;;;1.98;0.98;;;21.50;54.90;;;;;;4909339;28;94893;-63
2022/05/28 03:41:11;;;;;;;2.45;1.00;;;21.50;55.00;;;;;;4909904;28;92670;-63
2022/05/28 03:43:37;;;;;;;2.28;1.45;;;21.50;55.00;;;;;;4909177;28;93284;-63
2022/05/28 03:46:03;;;;;;;2.78;1.30;;;21.50;55.00;;;;;;4908018;28;93493;-64
2022/05/28 03:48:30;;;;;;;3.65;1.52;;;21.50;54.90;;;;;;4908521;28;93050;-64
2022/05/28 03:50:56;;;;;;;1.75;1.10;;;21.50;55.00;;;;;;4909140;28;91961;-64
2022/05/28 03:53:22;;;;;;;4.53;1.40;;;21.50;55.10;;;;;;4909125;28;91705;-64
2022/05/28 03:55:48;;;;;;;1.95;1.30;;;21.50;55.00;;;;;;4906408;28;94077;-63
2022/05/28 03:58:16;;;;;;;2.50;1.45;;;21.50;55.10;;;;;;4908343;28;93405;-64
2022/05/28 04:00:42;;;;;;;2.67;1.52;;;21.50;55.10;;;;;;4908695;28;93255;-63
2022/05/28 04:03:08;;;;;;;1.00;0.82;;;21.50;55.10;;;;;;4907544;28;92926;-64
2022/05/28 04:05:39;;;;;;;1.42;1.00;;;21.40;55.20;;;;;;4909254;28;92717;-63
2022/05/28 04:08:05;;;;;;;1.65;1.00;;;21.50;55.10;;;;;;4908728;28;93476;-63
2022/05/28 04:10:31;;;;;;;1.33;1.00;;;21.40;55.00;;;;;;4908778;28;92466;-63
2022/05/28 04:12:57;;;;;;;2.30;1.33;;;21.50;55.10;;;;;;4908384;28;92703;-64
2022/05/28 04:15:24;;;;;;;1.73;1.10;;;21.50;55.00;;;;;;4908342;28;93250;-64
2022/05/28 04:17:50;;;;;;;2.05;1.23;;;21.50;55.10;;;;;;4908387;28;92823;-64
2022/05/28 04:20:16;;;;;;;1.33;1.00;;;21.50;55.10;;;;;;4907996;28;93059;-64
2022/05/28 04:22:42;;;;;;;1.90;1.15;;;21.50;55.20;;;;;;4908785;28;92974;-64
2022/05/28 04:25:08;;;;;;;1.65;1.13;;;21.40;55.10;;;;;;4908486;28;93946;-64
2022/05/28 04:27:34;;;;;;;2.67;1.20;;;21.40;55.10;;;;;;4908572;28;93582;-63
2022/05/28 04:30:00;;;;;;;2.03;1.10;;;21.50;55.10;;;;;;4909292;28;91972;-63
2022/05/28 04:32:26;;;;;;;1.27;1.08;;;21.50;55.10;;;;;;4908524;28;93163;-63
2022/05/28 04:34:51;;;;;;;2.25;1.35;;;21.50;55.10;;;;;;4907364;28;93657;-63
2022/05/28 04:37:17;;;;;;;1.88;1.10;;;21.50;55.10;;;;;;4907453;28;94520;-64
2022/05/28 04:39:45;;;;;;;1.60;1.10;;;21.50;55.10;;;;;;4909211;28;92796;-63
2022/05/28 04:42:11;;;;;;;2.40;1.20;;;21.50;55.00;;;;;;4908945;28;91872;-63
2022/05/28 04:44:36;;;;;;;1.60;0.98;;;21.50;55.10;;;;;;4906963;28;93264;-64
2022/05/28 04:47:02;;;;;;;1.88;1.13;;;21.50;55.10;;;;;;4907055;28;92867;-63
2022/05/28 04:49:28;;;;;;;1.55;1.10;;;21.50;55.00;;;;;;4907537;28;93957;-64
2022/05/28 04:51:53;;;;;;;1.73;1.27;;;21.50;55.10;;;;;;4907019;28;94184;-63
2022/05/28 04:54:19;;;;;;;1.35;1.00;;;21.50;55.10;;;;;;4910922;28;93094;-63
2022/05/28 04:56:45;;;;;;;1.38;1.10;;;21.50;55.20;;;;;;4910991;28;93108;-63
2022/05/28 04:59:10;;;;;;;1.60;1.10;;;21.50;55.10;;;;;;4912363;28;92579;-63
2022/05/28 05:01:36;;;;;;;1.40;1.20;;;21.60;55.20;;;;;;4911744;28;92018;-64
2022/05/28 05:04:02;;;;;;;2.45;1.20;;;21.60;55.00;;;;;;4911357;28;92664;-64
2022/05/28 05:06:28;;;;;;;1.83;1.20;;;21.60;55.10;;;;;;4911785;28;94233;-64
2022/05/28 05:08:54;;;;;;;1.85;1.02;;;21.70;55.00;;;;;;4911747;28;93125;-64
2022/05/28 05:11:19;;;;;;;1.58;1.02;;;21.70;55.00;;;;;;4911067;28;93181;-63
2022/05/28 05:13:45;;;;;;;2.30;1.30;;;21.70;54.90;;;;;;4910261;28;93792;-64
2022/05/28 05:16:13;;;;;;;1.45;1.00;;;21.70;55.00;;;;;;4910474;28;93272;-63
2022/05/28 05:18:38;;;;;;;1.58;1.27;;;21.70;55.20;;;;;;4911842;28;92911;-64
2022/05/28 05:21:04;;;;;;;2.92;1.45;;;21.70;55.10;;;;;;4911558;28;92340;-64
2022/05/28 05:23:30;;;;;;;1.38;1.05;;;21.70;55.20;;;;;;4909716;28;96558;-63
2022/05/28 05:25:56;;;;;;;2.40;1.35;;;21.70;55.20;;;;;;4910827;28;92726;-64
2022/05/28 05:28:21;;;;;;;2.50;1.23;;;21.70;55.30;;;;;;4911461;28;93247;-63
2022/05/28 05:30:48;;;;;;;1.60;1.20;;;21.70;55.30;;;;;;4917397;28;91922;-64
2022/05/28 05:33:13;;;;;;;2.03;1.15;;;21.70;55.10;;;;;;4911334;28;92921;-63
2022/05/28 05:35:39;;;;;;;1.45;0.98;;;21.70;55.40;;;;;;4910980;28;93019;-63
2022/05/28 05:38:05;;;;;;;2.28;1.10;;;21.70;55.30;;;;;;4910952;28;93759;-64
2022/05/28 05:40:37;;;;;;;1.77;1.10;;;21.70;55.40;;;;;;4910414;28;92981;-64
2022/05/28 05:43:04;;;;;;;2.47;1.30;;;21.70;55.50;;;;;;4910919;28;92690;-64
2022/05/28 05:45:30;;;;;;;1.88;1.17;;;21.80;55.60;;;;;;4910400;28;92680;-63
2022/05/28 05:47:55;;;;;;;2.00;1.17;;;21.70;55.60;;;;;;4909182;28;92661;-63
2022/05/28 05:50:21;;;;;;;1.48;1.05;;;21.80;55.70;;;;;;4909378;28;92944;-64
2022/05/28 05:52:47;;;;;;;1.67;1.20;;;21.80;55.60;;;;;;4909976;28;93401;-64
2022/05/28 05:55:13;;;;;;;2.20;1.20;;;21.80;55.80;;;;;;4910534;28;92201;-64
2022/05/28 05:57:39;;;;;;;2.85;1.45;;;21.80;55.60;;;;;;4910755;28;92338;-63
2022/05/28 06:00:09;;;;;;;1.05;0.90;;;21.80;55.70;;;;;;4910817;28;92519;-64
2022/05/28 06:02:34;;;;;;;1.98;1.42;;;21.80;55.80;;;;;;4909475;28;94390;-63
2022/05/28 06:05:00;;;;;;;1.30;1.15;;;21.80;55.80;;;;;;4910216;28;93663;-64
2022/05/28 06:07:26;;;;;;;2.65;1.10;;;21.80;55.90;;;;;;4910898;28;92352;-63
2022/05/28 06:09:52;;;;;;;1.80;1.20;;;21.80;55.90;;;;;;4910757;28;92929;-63
2022/05/28 06:12:18;;;;;;;1.33;0.82;;;21.80;56.10;;;;;;4908245;28;94223;-63
2022/05/28 06:14:43;;;;;;;1.65;1.02;;;21.80;56.00;;;;;;4909846;28;92908;-63
2022/05/28 06:17:09;;;;;;;2.42;0.90;;;21.80;56.10;;;;;;4909922;28;92154;-64
2022/05/28 06:19:35;;;;;;;2.63;1.30;;;21.80;56.10;;;;;;4910660;28;92184;-63
2022/05/28 06:22:01;;;;;;;1.60;1.10;;;21.80;56.10;;;;;;4909587;28;93225;-64
2022/05/28 06:24:27;;;;;;;3.05;1.35;;;21.80;56.20;;;;;;4909171;28;93338;-62
2022/05/28 06:26:53;;;;;;;1.33;1.10;;;21.80;56.20;;;;;;4909100;28;94461;-64
2022/05/28 06:29:19;;;;;;;3.40;1.20;;;21.80;56.20;;;;;;4907650;28;92669;-62
2022/05/28 06:31:44;;;;;;;2.60;1.75;;;21.80;56.10;;;;;;4908897;28;93111;-63
2022/05/28 06:34:10;;;;;;;3.40;1.40;;;21.80;56.40;;;;;;4909945;28;93527;-63
2022/05/28 06:36:36;;;;;;;3.10;1.40;;;21.90;56.40;;;;;;4909237;28;92164;-64
2022/05/28 06:39:02;;;;;;;4.32;1.55;;;21.90;56.30;;;;;;4909243;28;92237;-64
2022/05/28 06:41:27;;;;;;;4.53;1.60;;;21.90;56.30;;;;;;4906820;28;95538;-63
2022/05/28 06:43:53;;;;;;;4.70;1.73;;;21.90;56.20;;;;;;4910272;28;93131;-63
2022/05/28 06:46:19;;;;;;;4.15;1.85;;;21.90;56.00;;;;;;4910076;28;92486;-64
2022/05/28 06:48:45;;;;;;;9.38;2.35;;;21.80;55.90;;;;;;4909856;28;92897;-63
2022/05/28 06:51:10;;;;;;;7.78;1.80;;;21.90;55.80;;;;;;4909014;28;94377;-64
2022/05/28 06:53:46;;;;;;;8.15;2.05;;;21.90;55.20;;;;;;4910028;28;92071;-63
2022/05/28 06:56:12;;;;;;;10.38;2.25;;;21.90;55.00;;;;;;4909135;28;92800;-63
2022/05/28 06:58:38;;;;;;;9.55;2.38;;;21.90;53.70;;;;;;4909822;28;92389;-64
2022/05/28 07:01:07;;;;;;;11.10;2.65;;;21.90;54.20;;;;;;4908003;28;94779;-63
2022/05/28 07:03:33;;;;;;;8.52;1.88;;;21.90;54.10;;;;;;4909885;28;93054;-64
2022/05/28 07:05:59;;;;;;;9.73;2.38;;;21.90;53.20;;;;;;4909880;28;92043;-64
2022/05/28 07:08:26;;;;;;;8.00;2.40;;;21.90;53.40;;;;;;4910037;28;92241;-63
2022/05/28 07:10:54;;;;;;;12.75;2.75;;;21.90;53.00;;;;;;4909331;28;93587;-64
2022/05/28 07:13:21;;;;;;;10.77;2.17;;;21.90;52.20;;;;;;4908199;28;95856;-63
2022/05/28 07:15:47;;;;;;;11.15;2.45;;;21.90;52.10;;;;;;4906948;28;94026;-63
2022/05/28 07:18:14;;;;;;;12.88;2.70;;;21.90;52.10;;;;;;4909156;28;92929;-63
2022/05/28 07:20:40;;;;;;;10.10;2.00;;;21.90;52.00;;;;;;4909046;28;93212;-64
2022/05/28 07:23:27;;;;;;;5.05;2.00;;;21.90;51.40;;;;;;4909137;28;92933;-65
2022/05/28 07:26:14;;;;;;;7.70;2.28;;;21.90;50.90;;;;;;4909534;28;92460;-63
2022/05/28 07:28:42;;;;;;;9.10;2.97;;;21.90;50.60;;;;;;4909904;28;92532;-63
2022/05/28 07:31:19;;;;;;;7.63;2.10;;;21.90;49.80;;;;;;4909093;28;93073;-63
2022/05/28 07:33:46;;;;;;;10.63;2.10;;;21.90;49.60;;;;;;4909127;28;92703;-63
2022/05/28 07:36:15;;;;;;;7.43;1.95;;;21.90;50.30;;;;;;4908903;28;92076;-62
2022/05/28 07:38:44;;;;;;;;;;;21.90;50.20;;;;;;4908927;28;93070;-63
2022/05/28 07:41:16;;;;;;;12.00;2.60;;;21.90;50.00;;;;;;4906547;28;94855;-62
2022/05/28 07:43:42;;;;;;;8.18;2.20;;;21.90;50.40;;;;;;4904371;28;93231;-63
2022/05/28 07:46:14;;;;;;;6.88;2.05;;;21.90;50.20;;;;;;4908769;28;92946;-63
2022/05/28 07:48:40;;;;;;;12.68;2.55;;;21.90;50.10;;;;;;4909292;28;92651;-63
2022/05/28 07:51:05;;;;;;;9.18;2.38;;;21.90;49.80;;;;;;4908610;28;93702;-63
2022/05/28 07:53:31;;;;;;;16.15;2.47;;;21.90;49.80;;;;;;4907795;28;93124;-63
2022/05/28 07:56:00;;;;;;;23.50;4.63;;;21.80;49.90;;;;;;4908416;28;92504;-63
2022/05/28 07:58:26;;;;;;;49.67;7.30;;;21.80;49.00;;;;;;4908734;28;92093;-63
2022/05/28 08:00:52;;;;;;;38.55;7.22;;;21.80;49.00;;;;;;4908225;28;93062;-64
2022/05/28 08:03:18;;;;;;;36.78;6.57;;;21.90;49.30;;;;;;4908036;28;92660;-65
2022/05/28 08:05:46;;;;;;;37.42;7.07;;;21.90;49.70;;;;;;4906445;28;93513;-64
2022/05/28 08:08:12;;;;;;;31.05;6.57;;;21.90;49.60;;;;;;4906211;28;92964;-64
2022/05/28 08:10:38;;;;;;;29.40;5.00;;;21.90;49.40;;;;;;4908270;28;92818;-64
2022/05/28 08:13:09;;;;;;;32.90;5.72;;;21.90;49.20;;;;;;4906263;28;95218;-63
2022/05/28 08:15:38;;;;;;;28.65;6.22;;;21.90;49.40;;;;;;4908339;28;93020;-63
2022/05/28 08:18:05;;;;;;;27.53;5.53;;;21.90;49.70;;;;;;4907944;28;93456;-65
2022/05/28 08:23:15;;;;;;;29.20;5.70;;;21.90;49.90;;;;;;4907552;28;92365;-64
2022/05/28 08:25:41;;;;;;;22.60;4.20;;;21.90;49.70;;;;;;4908100;28;92835;-64
2022/05/28 08:28:08;;;;;;;19.58;5.15;;;21.90;49.80;;;;;;4910573;28;92465;-65
2022/05/28 08:30:35;;;;;;;18.75;5.25;;;21.90;49.70;;;;;;4912386;28;97092;-64
2022/05/28 08:33:03;;;;;;;20.00;3.58;;;21.90;50.00;;;;;;4909750;28;93785;-64
2022/05/28 08:35:29;;;;;;;19.30;4.03;;;21.90;50.20;;;;;;4908630;28;93088;-63
2022/05/28 08:37:55;;;;;;;16.65;3.30;;;21.90;49.80;;;;;;4910057;28;93372;-64
2022/05/28 08:40:23;;;;;;;16.30;3.53;;;21.90;49.40;;;;;;4911152;28;92986;-64
2022/05/28 08:42:50;;;;;;;19.00;3.43;;;21.90;50.30;;;;;;4911500;28;93121;-64
2022/05/28 08:45:17;;;;;;;11.65;2.58;;;21.90;50.40;;;;;;4910429;28;93297;-64
2022/05/28 08:47:49;;;;;;;16.15;2.83;;;21.90;49.90;;;;;;4910772;28;92446;-64
2022/05/28 08:50:15;;;;;;;16.48;2.85;;;21.90;49.50;;;;;;4924490;28;94110;-64
2022/05/28 08:52:53;;;;;;;10.55;2.90;;;21.90;49.60;;;;;;4906586;28;95924;-64
2022/05/28 08:55:23;;;;;;;12.82;3.72;;;21.90;49.60;;;;;;4908960;28;93724;-65
2022/05/28 08:57:57;;;;;;;11.32;2.72;;;22.00;49.50;;;;;;4907226;28;94522;-65
2022/05/28 09:00:41;;;;;;;7.05;2.72;;;22.00;49.80;;;;;;4910385;28;93073;-65
2022/05/28 09:03:15;;;;;;;12.35;2.83;;;22.00;50.50;;;;;;4908705;28;96049;-65
2022/05/28 09:06:07;;;;;;;12.48;2.97;;;22.00;50.00;;;;;;4911437;28;92098;-65
2022/05/28 09:08:38;;;;;;;14.68;2.55;;;21.90;49.80;;;;;;4911455;28;93174;-65
2022/05/28 09:11:13;;;;;;;13.57;2.95;;;22.00;50.10;;;;;;4910821;28;93254;-66
2022/05/28 09:13:44;;;;;;;10.48;2.53;;;22.00;49.80;;;;;;4911018;28;92466;-64
2022/05/28 09:16:25;;;;;;;18.85;3.00;;;21.90;49.60;;;;;;4910619;28;92838;-66
2022/05/28 09:18:53;;;;;;;11.13;2.60;;;21.90;49.70;;;;;;4910757;28;92625;-66
2022/05/28 09:21:21;;;;;;;13.05;3.28;;;21.90;49.60;;;;;;4909858;28;94090;-67
2022/05/28 09:24:07;;;;;;;10.18;2.60;;;22.00;50.00;;;;;;4911187;28;94466;-65
2022/05/28 09:27:03;;;;;;;8.52;2.60;;;21.90;49.70;;;;;;4911199;28;92836;-66
2022/05/28 09:29:56;;;;;;;10.48;2.90;;;22.00;49.70;;;;;;4910779;28;92580;-63
2022/05/28 09:32:34;;;;;;;12.15;2.38;;;22.00;50.00;;;;;;4910756;28;93187;-64
2022/05/28 09:35:37;;;;;;;8.20;2.17;;;22.00;49.70;;;;;;4910101;28;94541;-64
2022/05/28 09:38:40;;;;;;;7.25;2.42;;;22.00;49.50;;;;;;4911093;28;93012;-63
2022/05/28 09:41:06;;;;;;;69.50;15.57;;;22.00;49.60;;;;;;4909769;28;91885;-63
2022/05/28 09:43:43;;;;;;;44.90;10.02;;;22.00;49.70;;;;;;4908936;28;94020;-62
2022/05/28 09:46:27;;;;;;;35.28;8.52;;;22.00;49.90;;;;;;4908249;28;95990;-64
2022/05/28 09:49:19;;;;;;;31.60;8.20;;;22.00;50.20;;;;;;4910103;28;93819;-64
2022/05/28 09:52:06;;;;;;;46.45;10.32;;;22.00;50.20;;;;;;4909283;28;92584;-63
2022/05/28 09:54:33;;;;;;;42.33;9.60;;;22.00;50.60;;;;;;4908549;28;93191;-65
2022/05/28 09:57:22;;;;;;;38.08;8.95;;;22.00;50.50;;;;;;4909042;28;92792;-64
2022/05/28 09:59:52;;;;;;;38.63;8.75;;;22.10;51.40;;;;;;4910973;28;93078;-61
2022/05/28 10:02:28;;;;;;;33.80;9.82;;;22.10;51.30;;;;;;4910547;28;92756;-62
2022/05/28 10:05:20;;;;;;;39.67;9.43;;;22.00;51.30;;;;;;4909401;28;92690;-63
2022/05/28 10:07:51;;;;;;;38.58;9.50;;;22.00;51.40;;;;;;4909903;28;92537;-63
2022/05/28 10:10:26;;;;;;;34.25;9.77;;;22.00;51.80;;;;;;4910450;28;92738;-63
2022/05/28 10:12:52;;;;;;;34.70;10.45;;;22.00;51.70;;;;;;4910224;28;93220;-64
2022/05/28 10:15:28;;;;;;;32.30;9.45;;;22.00;52.00;;;;;;4908015;28;94948;-63
2022/05/28 10:18:03;;;;;;;34.88;8.93;;;22.00;52.20;;;;;;4908687;28;93892;-64
2022/05/28 10:20:32;;;;;;;30.25;8.55;;;22.10;52.40;;;;;;4909176;28;92299;-64
2022/05/28 10:23:02;;;;;;;30.52;8.95;;;22.10;52.60;;;;;;4909134;28;93101;-64
2022/05/28 10:25:47;;;;;;;43.55;10.32;;;22.00;52.10;;;;;;4908705;28;92978;-65
2022/05/28 10:28:13;;;;;;;31.95;7.60;;;22.00;52.20;;;;;;4909445;28;92700;-64
2022/05/28 10:30:43;;;;;;;26.92;7.75;;;22.00;52.50;;;;;;4910287;28;91883;-64
2022/05/28 10:33:19;;;;;;;32.83;8.10;;;22.00;52.10;;;;;;4904738;28;92724;-64
2022/05/28 10:35:46;;;;;;;32.00;8.35;;;22.00;52.00;;;;;;4908470;28;92609;-64
2022/05/28 10:38:16;;;;;;;24.65;7.35;;;22.00;52.20;;;;;;4909373;28;92944;-65
2022/05/28 10:40:51;;;;;;;28.27;7.40;;;22.00;52.20;;;;;;4907685;28;93990;-62
2022/05/28 10:43:38;;;;;;;27.10;7.18;;;22.10;52.50;;;;;;4907912;28;93305;-65
2022/05/28 10:46:31;;;;;;;21.05;7.40;;;22.10;52.90;;;;;;4908737;28;93545;-63
2022/05/28 10:49:30;;;;;;;27.02;7.28;;;22.10;52.80;;;;;;4908868;28;92477;-64
2022/05/28 10:52:10;;;;;;;24.52;7.68;;;22.10;53.40;;;;;;4910341;28;92719;-63
2022/05/28 10:54:38;;;;;;;24.38;6.95;;;22.10;53.40;;;;;;4909182;28;92844;-64
2022/05/28 10:57:19;;;;;;;28.73;7.23;;;22.10;53.50;;;;;;4907327;28;93255;-64
2022/05/28 10:59:56;;;;;;;21.92;6.40;;;22.10;53.30;;;;;;4907532;28;92931;-63
2022/05/28 11:03:00;;;;;;;22.35;6.25;;;22.10;53.20;;;;;;4907585;28;92585;-64
2022/05/28 11:05:44;;;;;;;20.08;5.80;;;22.10;52.80;;;;;;4906416;28;92112;-65
2022/05/28 11:09:01;;;;;;;24.42;6.18;;;22.10;52.60;;;;;;4905474;28;97238;-64
2022/05/28 11:11:48;;;;;;;21.45;6.15;;;22.10;53.00;;;;;;4897884;28;95094;-64
2022/05/28 11:14:31;;;;;;;23.60;5.57;;;22.10;52.30;;;;;;4908122;28;93049;-64
2022/05/28 11:17:18;;;;;;;23.50;5.90;;;22.10;52.50;;;;;;4907363;28;92611;-64
2022/05/28 11:20:13;;;;;;;18.40;5.68;;;22.10;52.50;;;;;;4907345;28;92972;-64
2022/05/28 11:22:41;;;;;;;19.88;5.20;;;22.10;52.30;;;;;;4906976;28;95750;-64
2022/05/28 11:25:29;;;;;;;17.23;5.97;;;22.10;52.30;;;;;;4906002;28;92714;-63
2022/05/28 11:28:30;;;;;;;20.55;5.63;;;22.10;52.00;;;;;;4907139;28;91995;-62
2022/05/28 11:31:03;;;;;;;21.10;6.22;;;22.10;52.00;;;;;;4906663;28;93246;-62
2022/05/28 11:33:37;;;;;;;17.52;5.88;;;22.10;52.20;;;;;;4906967;28;94191;-64
2022/05/28 11:36:29;;;;;;;20.70;5.80;;;22.10;52.10;;;;;;4907718;28;94206;-62
2022/05/28 11:39:12;;;;;;;23.48;6.50;;;22.10;52.30;;;;;;4890910;28;93389;-63
2022/05/28 11:42:02;;;;;;;23.33;5.70;;;22.10;52.20;;;;;;4907568;28;93189;-64
2022/05/28 11:44:54;;;;;;;20.85;5.50;;;22.10;52.30;;;;;;4907406;28;92758;-64
2022/05/28 11:47:39;;;;;;;20.52;5.45;;;22.10;52.30;;;;;;4908107;28;92778;-63
2022/05/28 11:53:26;;;;;;;19.98;5.53;;;22.10;52.10;;;;;;4906876;28;94113;-63
2022/05/28 11:55:55;;;;;;;16.90;5.28;;;22.10;52.10;;;;;;4866336;28;1219422;-65
2022/05/28 11:58:27;;;;;;;16.50;4.80;;;22.10;52.20;;;;;;4908910;28;92032;-64
2022/05/28 12:01:01;;;;;;;17.83;5.70;;;22.10;52.00;;;;;;4908870;28;93301;-62
2022/05/28 12:03:29;;;;;;;17.58;4.45;;;22.10;51.80;;;;;;4907747;28;94122;-64
2022/05/28 12:06:34;;;;;;;13.50;4.20;;;22.10;51.70;;;;;;4906568;28;96998;-63
2022/05/28 12:09:15;;;;;;;18.98;6.00;;;22.10;51.80;;;;;;4907668;28;92800;-64
2022/05/28 12:11:59;;;;;;;21.52;4.63;;;22.10;51.80;;;;;;4908384;28;92493;-64
2022/05/28 12:14:41;;;;;;;15.68;4.82;;;22.10;51.70;;;;;;4908964;28;92786;-64
2022/05/28 12:17:09;;;;;;;12.57;4.18;;;22.10;51.60;;;;;;4908946;28;92974;-63
2022/05/28 12:19:48;;;;;;;14.45;4.53;;;22.10;51.80;;;;;;4909263;28;92963;-64
2022/05/28 12:22:36;;;;;;;18.53;4.73;;;22.10;51.90;;;;;;4908406;28;92209;-62
2022/05/28 12:25:15;;;;;;;13.88;3.95;;;22.10;51.90;;;;;;4908153;28;93073;-63
2022/05/28 12:27:42;;;;;;;15.07;4.65;;;22.10;51.60;;;;;;4907970;28;93042;-63
2022/05/28 12:30:23;;;;;;;16.80;4.35;;;22.10;51.80;;;;;;4907257;28;93452;-64
2022/05/28 12:32:51;;;;;;;11.98;3.70;;;22.10;51.90;;;;;;4907831;28;93024;-63
2022/05/28 12:35:20;;;;;;;13.50;4.35;;;22.10;51.80;;;;;;4906295;28;96455;-63
2022/05/28 12:37:54;;;;;;;9.93;3.97;;;22.10;51.50;;;;;;4908266;28;92903;-64
2022/05/28 12:40:42;;;;;;;12.15;3.70;;;22.10;52.00;;;;;;4908786;28;92248;-64
2022/05/28 12:43:21;;;;;;;16.90;4.20;;;22.10;51.90;;;;;;4908272;28;92837;-65
2022/05/28 12:46:07;;;;;;;15.75;3.92;;;22.10;52.00;;;;;;4908095;28;92818;-64
2022/05/28 12:48:33;;;;;;;12.68;3.70;;;22.10;52.10;;;;;;4908661;28;92371;-64
2022/05/28 12:51:24;;;;;;;12.57;3.90;;;22.10;52.30;;;;;;4908688;28;92862;-64
2022/05/28 12:54:04;;;;;;;17.50;4.30;;;22.10;51.80;;;;;;4908494;28;93218;-65
2022/05/28 12:56:32;;;;;;;10.13;3.58;;;22.10;52.30;;;;;;4906263;28;94301;-64
2022/05/28 12:59:16;;;;;;;11.43;4.00;;;22.00;52.60;;;;;;4906964;28;93875;-65
2022/05/28 13:02:19;;;;;;;10.10;3.03;;;22.00;51.40;;;;;;4907923;28;92969;-64
2022/05/28 13:05:16;;;;;;;8.23;3.13;;;22.10;52.10;;;;;;4907928;28;92731;-66
2022/05/28 13:08:03;;;;;;;6.25;2.50;;;22.10;50.40;;;;;;4903177;28;93293;-63
2022/05/28 13:10:29;;;;;;;9.43;2.35;;;22.00;48.50;;;;;;4907886;28;92733;-63
2022/05/28 13:13:14;;;;;;;7.20;2.60;;;22.00;48.60;;;;;;4907599;28;92713;-64